Hovedside
METAR-TAF:

METAR-TAF

Lufthavner :

Porto Alegre, Rio Grande do Sul, Brasil

breddegrad: 30-00S, lengdegrad: 051-11W, høyde over havet: 3 m

Gjeldene værobservasjon

Denne rapporten ble laget for 54 minutter siden, klokken 17:00 UTC
Vind 8 kt fra Øst, skiftende mellom Nordøst og Øst-sørøst
Temperatur 24°C
Luftfuktighet 47%
Trykk 1016 hPa
Sikt 10 km eller mer
Spredte skyer i en høyde av 4300 ft

METAR: SBPA 211700Z 08008KT 040V120 9999 SCT043 24/12 Q1016

Tid: 15:54 (17:54 UTC)

Varsel

Denne rapporten ble laget for 2 timer og 39 minutter siden, klokken 15:15 UTC
Varsel gyldig fra 21. klokken 18 UTC til 22. klokken 18 UTC
Vind 14 kt fra Øst-sørøst
Sikt 10 km eller mer
ingen skyer under 1500 m og ingen bygeskyer
Blir
fra 22. klokken 02 UTC til 22. klokken 04 UTC
Vind 5 kt fra Øst
Blir
fra 22. klokken 12 UTC til 22. klokken 14 UTC
Vind 7 kt fra Nord-nordvest

TAF: SBPA 211515Z 2118/2218 12014KT CAVOK TN15/2208Z TX31/2217Z BECMG 2202/2204 10005KT BECMG 2212/2214 34007KT RMK PDW

Værobservasjoner og værvarsel for over 4000 flyplasser (METAR- og TAF-rapporter).

Tilgjengelige stasjoner er representert av de røde og gule prikkene på kartet.

Hold musepekeren over prikken for å se navnet på stasjonen.

Klikk så for å se værobservasjoner og -varsler.

For å forandre kartet kan du klikke på den grønne knappen med svart kryss for å zoome inn, på den grønne knappen med strek for å zoome ut, eller på de grønne pilene for å se tilstøtende kart.


METAR-TAF: